Station: Rottnest Island  

  Atmospheric Gas Attenuation - ITU Rec 676-11   ----------------- dB/100km -----------------
Date Time Temp RH % AH g/m3 Dew Point Wind Direction Speed kph Gust kph Barometer mB Rainfall Since 9am 24GHz 47GHz 76GHz 122GHz 134GHz 241GHz
02/05 23:50 15.5 72 9.52 10.5 19 24 1024.8 0 21.5 27.3 43.2 113.3 109.4 377.0
02/05 23:40 15.7 72 9.63 10.7 17 20 1024.9 0 21.7 27.4 43.5 114.2 110.6 381.2
02/05 23:30 15.7 71 9.5 10.5 17 24 1024.9 0 21.4 27.2 43.0 112.8 108.8 375.1
02/05 23:20 15.5 70 9.25 10.1 15 19 1025 0 20.9 26.9 42.1 110.4 105.8 364.4
02/05 23:10 15.2 71 9.22 10 11 15 1025.1 0 20.8 26.9 42.1 110.5 105.8 364.4
02/05 23:00 15.7 70 9.37 10.2 15 22 1025.1 0 21.1 27.0 42.5 111.4 107.1 369.1
02/05 22:50 14.9 70 8.92 9.5 13 17 1025.1 0 20.2 26.5 41.1 107.7 102.2 351.8
02/05 22:40 15 70 8.98 9.6 11 13 1025.1 0 20.3 26.6 41.2 108.2 102.9 354.1
02/05 22:30 15.3 70 9.14 9.9 13 19 1025.2 0 20.7 26.8 41.7 109.5 104.6 360.2
02/05 22:20 15.1 68 8.77 9.2 11 13 1025.2 0 19.9 26.2 40.4 105.8 100.0 344.0
02/05 22:10 15.7 67 8.96 9.6 15 19 1025.2 0 20.2 26.4 40.8 107.0 101.7 350.1
02/05 22:00 15.7 65 8.7 9.1 19 24 1025.1 0 19.7 25.9 39.8 104.2 98.3 338.2
02/05 21:50 15.6 65 8.64 9.1 19 20 1025.1 0 19.6 25.9 39.6 103.7 97.6 335.9
02/05 21:40 15.7 65 8.7 9.1 19 20 1025.1 0 19.7 25.9 39.8 104.2 98.3 338.2
02/05 21:30 15.8 64 8.61 9 19 24 1025.1 0 19.5 25.8 39.4 103.2 97.0 333.7
02/05 21:20 15.9 63 8.53 8.9 19 20 1025.1 0 19.3 25.6 39.0 102.2 95.8 329.6
02/05 21:10 16 62 8.45 8.7 19 24 1025 0 19.2 25.5 38.6 101.2 94.7 325.6
02/05 21:00 15.9 62 8.4 8.6 20 28 1025 0 19.1 25.4 38.5 100.8 94.1 323.7
02/05 20:50 16 61 8.31 8.5 22 24 1025 0 18.9 25.2 38.1 99.8 92.9 319.3
02/05 20:40 16 62 8.45 8.7 17 20 1025 0 19.2 25.5 38.6 101.2 94.7 325.6
02/05 20:30 15.7 63 8.43 8.7 17 22 1024.9 0 19.1 25.5 38.7 101.4 94.8 325.9
02/05 20:20 15.8 63 8.48 8.8 19 20 1024.9 0 19.2 25.6 38.8 101.8 95.3 327.7
02/05 20:10 15.7 62 8.3 8.4 13 15 1024.9 0 18.8 25.3 38.2 100.0 93.1 320.0
02/05 20:00 15.7 61 8.16 8.2 19 24 1024.9 0 18.6 25.1 37.7 98.6 91.3 313.7
02/05 19:50 15.9 60 8.13 8.2 20 24 1024.8 0 18.5 25.0 37.4 98.0 90.7 311.6
02/05 19:40 15.9 63 8.53 8.9 19 22 1024.8 0 19.3 25.6 39.0 102.2 95.8 329.5
02/05 19:30 15.9 62 8.4 8.6 19 24 1024.8 0 19.1 25.4 38.5 100.8 94.1 323.7
02/05 19:20 15.8 61 8.21 8.3 17 20 1024.8 0 18.7 25.1 37.8 99.0 91.8 315.6
02/05 19:10 15.7 61 8.16 8.2 17 20 1024.7 0 18.6 25.1 37.6 98.6 91.3 313.7
02/05 19:00 15.7 61 8.16 8.2 19 28 1024.6 0 18.6 25.1 37.6 98.5 91.3 313.7
02/05 18:50 15.7 61 8.16 8.2 17 22 1024.6 0 18.6 25.1 37.6 98.5 91.3 313.7
02/05 18:40 15.7 62 8.3 8.4 22 24 1024.5 0 18.8 25.3 38.2 100.0 93.1 319.9
02/05 18:30 15.7 61 8.16 8.2 22 33 1024.4 0 18.6 25.1 37.6 98.5 91.3 313.6
02/05 18:20 15.9 61 8.26 8.4 26 30 1024.4 0 18.8 25.2 37.9 99.3 92.3 317.3
02/05 18:10 15.9 63 8.53 8.9 30 32 1024.2 0 19.3 25.6 39.0 102.1 95.8 329.4
02/05 18:00 15.8 63 8.48 8.8 26 33 1024.1 0 19.2 25.5 38.8 101.7 95.2 327.5
02/05 17:50 15.6 64 8.51 8.8 20 24 1024.1 0 19.3 25.6 39.0 102.3 95.9 329.7
02/05 17:40 15.7 62 8.3 8.4 20 26 1024 0 18.8 25.3 38.2 99.9 93.0 319.8
02/05 17:30 15.6 63 8.38 8.6 20 30 1023.9 0 19.0 25.4 38.5 100.9 94.2 323.8
02/05 17:20 15.8 60 8.08 8.1 22 26 1023.8 0 18.4 24.9 37.2 97.5 90.1 309.5
02/05 17:10 15.8 62 8.35 8.5 20 24 1023.8 0 19.0 25.3 38.3 100.3 93.5 321.6
02/05 17:00 15.9 61 8.26 8.4 26 35 1023.8 0 18.8 25.1 37.9 99.2 92.3 317.1
02/05 16:50 15.9 60 8.13 8.2 33 35 1023.7 0 18.5 24.9 37.4 97.9 90.6 311.3
02/05 16:40 16.1 58 7.95 7.8 32 35 1023.7 0 18.1 24.6 36.6 95.8 88.1 302.6
02/05 16:30 16.1 58 7.95 7.8 28 35 1023.7 0 18.1 24.6 36.6 95.8 88.1 302.6
02/05 16:20 16.1 61 8.36 8.6 30 33 1023.7 0 19.0 25.2 38.2 100.0 93.3 320.8
02/05 16:10 16.1 63 8.64 9.1 26 33 1023.8 0 19.6 25.7 39.3 103.0 96.9 333.4
02/05 16:00 16.2 63 8.69 9.2 24 32 1023.9 0 19.7 25.7 39.4 103.4 97.4 335.3
02/05 15:50 16.3 63 8.74 9.3 32 35 1023.8 0 19.8 25.8 39.6 103.7 97.9 337.1
02/05 15:40 16.3 62 8.6 9 26 30 1023.8 0 19.5 25.6 39.0 102.3 96.1 330.8
02/05 15:30 16.3 60 8.32 8.5 28 35 1023.8 0 18.9 25.1 37.9 99.4 92.6 318.2
02/05 15:20 16.3 60 8.32 8.5 32 33 1023.7 0 18.9 25.1 37.9 99.4 92.5 318.2
02/05 15:10 16.2 60 8.27 8.4 30 32 1023.8 0 18.8 25.1 37.8 99.0 92.0 316.4
02/05 15:00 16.7 62 8.81 9.4 30 39 1023.9 0 19.9 25.8 39.7 104.0 98.3 338.6
02/05 14:50 16.6 63 8.9 9.5 30 33 1023.8 0 20.1 26.0 40.1 105.0 99.6 343.0
02/05 14:40 16.6 62 8.76 9.3 24 28 1023.9 0 19.8 25.7 39.5 103.6 97.8 336.7
02/05 14:30 16.3 59 8.19 8.3 32 39 1023.8 0 18.6 24.9 37.4 98.0 90.9 312.4
02/05 14:20 16.5 60 8.42 8.7 28 32 1024 0 19.1 25.2 38.2 100.2 93.6 321.9
02/05 14:10 16.4 58 8.09 8.1 32 39 1024 0 18.4 24.8 37.0 96.9 89.5 307.7
02/05 14:00 16.4 57 7.96 7.9 32 39 1024.1 0 18.1 24.6 36.5 95.6 87.9 302.0
02/05 13:50 16.2 56 7.72 7.4 35 39 1024.1 0 17.6 24.2 35.7 93.4 85.1 292.2
02/05 13:40 16.5 59 8.28 8.5 32 37 1024.3 0 18.8 25.0 37.7 98.8 91.8 315.8
02/05 13:30 16.4 56 7.82 7.6 33 39 1024.3 0 17.8 24.3 36.0 94.2 86.2 295.9
02/05 13:20 16.2 59 8.14 8.2 30 35 1024.5 0 18.5 24.9 37.3 97.7 90.4 310.8
02/05 13:10 16.2 59 8.14 8.2 33 37 1024.7 0 18.5 24.9 37.3 97.7 90.5 310.8
02/05 13:00 16.1 59 8.09 8.1 35 46 1024.8 0 18.4 24.9 37.2 97.3 89.9 309.0
02/05 12:50 16.2 60 8.27 8.4 33 39 1025 0 18.8 25.1 37.8 99.1 92.1 316.7
02/05 12:40 16.1 58 7.95 7.8 37 43 1025.1 0 18.1 24.7 36.7 95.9 88.2 302.9
02/05 12:30 16 59 8.04 8 39 48 1025.3 0 18.3 24.8 37.1 97.0 89.5 307.3
02/05 12:20 16 59 8.04 8 39 46 1025.5 0 18.3 24.8 37.1 97.0 89.5 307.4
02/05 12:10 15.7 55 7.36 6.7 37 44 1025.8 0 16.9 23.9 34.6 90.5 81.3 278.7
02/05 12:00 15.7 54 7.22 6.4 39 48 1025.8 0 16.6 23.7 34.1 89.1 79.6 272.6
02/05 11:50 15.9 52 7.04 6.1 44 46 1025.8 0 16.2 23.3 33.4 87.1 77.2 264.2
02/05 11:40 15.7 57 7.63 7.2 37 43 1026.1 0 17.4 24.3 35.7 93.3 84.7 290.6
02/05 11:30 15.4 61 8.01 7.9 33 41 1026.3 0 18.2 25.0 37.3 97.5 89.8 308.6
02/05 11:20 14.9 62 7.9 7.7 28 33 1026.5 0 18.0 25.0 37.1 97.0 89.0 305.6
02/05 11:10 14.6 63 7.88 7.6 32 39 1026.5 0 18.0 25.0 37.1 97.2 89.1 305.9
02/05 11:00 14.6 64 8.01 7.9 30 39 1026.6 0 18.3 25.2 37.7 98.5 90.8 311.8
02/05 10:50 14.6 61 7.63 7.2 32 41 1026.5 0 17.5 24.6 36.2 94.6 85.9 294.7
02/05 10:40 14.5 60 7.46 6.8 33 39 1026.4 0 17.1 24.4 35.6 92.9 83.9 287.5
02/05 10:30 14.7 62 7.81 7.5 32 44 1026.5 0 17.9 24.9 36.8 96.3 88.1 302.4
02/05 10:20 14.4 62 7.66 7.2 30 33 1026.4 0 17.5 24.7 36.4 95.1 86.5 296.7
02/05 10:10 14.4 63 7.79 7.5 28 32 1026.5 0 17.8 24.9 36.9 96.5 88.2 302.6
02/05 10:00 14.5 60 7.46 6.8 28 39 1026.4 0 17.1 24.4 35.6 92.9 83.9 287.5
02/05 09:50 14.2 63 7.69 7.3 30 37 1026.5 0 17.6 24.8 36.6 95.7 87.1 298.9
02/05 09:40 14.1 63 7.65 7.2 26 30 1026.5 0 17.5 24.8 36.5 95.4 86.7 297.4
02/05 09:30 14.7 61 7.68 7.3 30 41 1026.5 0 17.6 24.7 36.3 95.0 86.4 296.5
02/05 09:20 14.4 62 7.66 7.2 26 32 1026.6 0 17.5 24.7 36.4 95.1 86.5 296.8
02/05 09:10 14.3 61 7.49 6.9 30 35 1026.5 0 17.2 24.5 35.8 93.5 84.5 289.5
02/05 09:00 14.3 64 7.86 7.6 26 37 1026.5 0 18.0 25.1 37.2 97.3 89.2 306.1
02/05 08:50 14.2 63 7.69 7.3 24 30 1026.4 0 17.6 24.8 36.6 95.7 87.1 298.8
02/05 08:40 14.1 63 7.65 7.2 28 35 1026.4 0 17.5 24.8 36.5 95.4 86.7 297.4
02/05 08:30 13.8 63 7.51 6.9 26 35 1026.3 0 17.3 24.6 36.1 94.3 85.2 292.2
02/05 08:20 13.8 66 7.86 7.6 24 32 1026.3 0 18.0 25.2 37.4 97.9 89.7 308.0
02/05 08:10 13.5 64 7.49 6.8 32 35 1026.2 0 17.2 24.7 36.1 94.4 85.3 292.4
02/05 08:00 13.4 65 7.56 7 28 35 1026.1 0 17.4 24.8 36.4 95.3 86.3 295.9
02/05 07:50 13.3 64 7.39 6.6 30 35 1026 0 17.0 24.6 35.8 93.6 84.2 288.6
02/05 07:40 13.2 67 7.69 7.2 24 30 1026 0 17.7 25.1 37.0 96.8 88.2 302.5
02/05 07:30 13.1 65 7.42 6.7 26 35 1025.9 0 17.1 24.7 36.0 94.1 84.8 290.6
02/05 07:20 13 65 7.37 6.6 28 33 1025.8 0 17.0 24.6 35.9 93.7 84.3 288.7

Last Refresh: 03-May-2026 01:27:26

Bureau of Meteorology